The Eastern Iowa Airport
KCID : rendu visible

Aérodrome :











RETROUVEZ-NOUS SUR...

 
LOGIN :

S'inscrire | Disclaimer

   EN    FR    IT 

 









Légende :    VFR   VFR Marginal   IFR   IFR Intensif   IFR Très Intensif
Visi : 
Plafond : 
>= 8 km
>= 3000ft
5 à 8 km
1000 à 3000 ft
1500m à 5 km
500 à 1000 ft
800 à 1500m
200 à 500 ft
< 800m
< 200 ft
Symboles :   Orages  Brouillard  Fortes neiges  Fortes précipitations  Vent > 20 kt






- Altitude de l'aérodrome : 869 ft
- Code IATA : CID


KCID - The Eastern Iowa

DERNIER METAR :
  • 080952Z 17003KT 7SM CLR 07/07 A2972 RMK AO2 SLP062 T00720072 $

METARs EXPIRÉS :
  • 080943Z AUTO 16004KT 1/2SM R09/P6000FT FG 07/07 A2972 RMK AO2 T00670067 $
  • 080935Z AUTO 16004KT 1 3/4SM BR 08/08 A2972 RMK AO2 T00780078 $
  • 080852Z AUTO 34005KT 5SM BR CLR 10/10 A2973 RMK AO2 SLP064 T01000100 55002
  • 080752Z AUTO 04004KT 7SM CLR 13/12 A2972 RMK AO2 SLP060 T01280117

TAF KCID
Valide du 08 à 10h jusqu'au 09 à 06h UTC


080943Z 0810/0906 VRB03KT 2SM BR SKC
TEMPO 0810/0812 1/4SM FG BKN003
FM081300 17003KT 6SM BR SCT150
FM081900 33019G28KT P6SM OVC040
PROB30 0820/0824 5SM -SHRA BKN025
FM090000 33015G25KT P6SM OVC100



MET'MAP, la Météo Aéronautique d'un coup d'oeil ! - Copyright ORBIFLY Décembre 2007 - Disclaimer

ORBIFLY MET'MAP TEAM :

Programmation & Développement : Alexandra Zaïnal
Sur une idée originale de : Baudouin d'Aumeries
Assistance à la programmation : Marc-Olivier Méhu
Soutien technique & logistique : Manuel Goepfert

Contact : metmap@orbifly.com




SOURCES & CREDITS :

   NOAA       Earth
Advisory